Portada
METAR-TAF:

METAR-TAF

Aeroports :

Funchal, Madeira, Portugal

latitud: 32-41-52N, longitud: 016-46-28W, altitud: 59 m

Observació

L'informe es va fer fa 22 minuts, a les 05:30 UTC
Vent 10 kt del Nord, variant entre Nord/Nord-Oest i Nord-Est
Temperatura 22°C
Humitat 69%
Pressió 1020 hPa
Visibilitat 10 km o més
Escasses núvols a una alçada de 1600 ft

METAR: LPMA 220530Z 36010KT 340V040 9999 FEW016 22/16 Q1020

Hora: 06:52 (05:52 UTC)

Pronòstic

L'informe es va fer fa 52 minuts, a les 05:00 UTC
Pronòstic vàlid del 22 a les 06 UTC al 23 a les 06 UTC
Vent 13 kt del Nord/Nord-Est
Visibilitat 10 km o més
Núvols disperses a una alçada de 1500 ft
Temporalment
l' 22 a les 06 UTC al 22 a les 12 UTC
Escasses núvols a una alçada de 1500 ft
Cel ennuvolat a una alçada de 3000 ft

TAF: LPMA 220500Z 2206/2306 03013KT 9999 SCT015 TEMPO 2206/2212 FEW015 BKN030

Observacions i pronòstics meteorològics de més de 4000 aeroports (METAR i TAF).

Les estacions disponibles són els punts grocs i vermells al mapa.

Posi el ratolí al punt desitjat per veure el nom de l'estació.

Feu clic per veure les observacions i els pronòstics meteorològics.

Per canviar el mapa: feu clic els botons verds amb una creu de color negre per apropar; al botó verd amb un guió per allunyar la imatge; o en les fletxes verdes per a mapes adjacents.


METAR-TAF: